createdAt,value
2023-07-03T00:00:13.994Z,16.38
2023-07-03T00:02:44.005Z,18.10
2023-07-03T00:05:12.281Z,21.15
2023-07-03T00:07:41.146Z,17.55
2023-07-03T00:10:10.397Z,19.25
2023-07-03T00:12:37.277Z,17.60
2023-07-03T00:15:04.882Z,15.10
2023-07-03T00:17:31.894Z,17.73
2023-07-03T00:19:59.140Z,12.55
2023-07-03T00:22:26.079Z,15.23
2023-07-03T00:24:52.919Z,13.88
2023-07-03T00:27:19.833Z,27.05
2023-07-03T00:29:48.124Z,20.33
2023-07-03T00:32:15.078Z,18.85
2023-07-03T00:34:42.029Z,16.75
2023-07-03T00:37:08.949Z,14.88
2023-07-03T00:39:35.780Z,14.75
2023-07-03T00:42:03.992Z,17.85
2023-07-03T00:44:30.915Z,18.65
2023-07-03T00:46:58.221Z,21.65
2023-07-03T00:49:26.788Z,15.85
2023-07-03T00:51:58.205Z,13.80
2023-07-03T00:54:25.486Z,15.07
2023-07-03T00:56:52.537Z,18.67
2023-07-03T00:59:20.194Z,15.55
2023-07-03T01:02:16.393Z,17.38
2023-07-03T01:05:07.836Z,23.95
2023-07-03T01:07:38.128Z,16.98
2023-07-03T01:10:13.780Z,18.25
2023-07-03T01:12:46.057Z,14.73
2023-07-03T01:15:18.703Z,16.80
2023-07-03T01:17:52.032Z,20.63
2023-07-03T01:20:22.862Z,19.35
2023-07-03T01:23:06.517Z,17.33
2023-07-03T01:25:38.172Z,16.00
2023-07-03T01:28:08.995Z,25.42
2023-07-03T01:30:37.846Z,20.77
2023-07-03T01:33:06.744Z,18.15
2023-07-03T01:35:34.303Z,23.10
2023-07-03T01:38:05.114Z,20.67
2023-07-03T01:40:33.990Z,21.27
2023-07-03T01:43:02.277Z,20.15
2023-07-03T01:45:29.224Z,20.58
2023-07-03T01:47:57.086Z,16.73
2023-07-03T01:50:30.127Z,15.30
2023-07-03T01:53:06.399Z,19.27
2023-07-03T01:55:51.143Z,19.05
2023-07-03T01:58:33.425Z,20.23
2023-07-03T02:01:09.132Z,21.33
2023-07-03T02:03:54.396Z,13.65
2023-07-03T02:06:29.965Z,22.42
2023-07-03T02:08:58.174Z,15.05
2023-07-03T02:11:29.080Z,21.45
2023-07-03T02:13:57.007Z,18.73
2023-07-03T02:16:31.362Z,22.20
2023-07-03T02:19:00.080Z,17.48
2023-07-03T02:21:29.204Z,17.45
2023-07-03T02:23:56.181Z,23.75
2023-07-03T02:26:23.082Z,17.40
2023-07-03T02:28:50.093Z,19.92
2023-07-03T02:31:17.284Z,23.38
2023-07-03T02:33:44.216Z,25.20
2023-07-03T02:36:11.132Z,24.35
2023-07-03T02:38:37.978Z,20.05
2023-07-03T02:41:04.846Z,23.08
2023-07-03T02:43:32.095Z,21.58
2023-07-03T02:46:04.956Z,23.08
2023-07-03T02:48:32.485Z,24.60
2023-07-03T02:50:59.597Z,22.27
2023-07-03T02:53:26.709Z,23.38
2023-07-03T02:56:00.240Z,16.13
2023-07-03T02:58:27.633Z,17.90
2023-07-03T03:00:55.799Z,23.50
2023-07-03T03:03:22.957Z,21.77
2023-07-03T03:05:50.345Z,22.75
2023-07-03T03:08:17.608Z,21.88
2023-07-03T03:10:44.505Z,19.88
2023-07-03T03:13:11.402Z,26.67
2023-07-03T03:15:38.539Z,19.83
2023-07-03T03:18:05.992Z,21.00
2023-07-03T03:20:33.073Z,21.20
2023-07-03T03:23:00.046Z,18.67
2023-07-03T03:25:26.913Z,15.75
2023-07-03T03:27:53.724Z,17.35
2023-07-03T03:30:21.449Z,18.92
2023-07-03T03:32:48.642Z,18.65
2023-07-03T03:35:15.652Z,16.23
2023-07-03T03:37:42.561Z,16.90
2023-07-03T03:40:10.712Z,13.98
2023-07-03T03:42:38.582Z,13.88
2023-07-03T03:45:06.533Z,9.10
2023-07-03T03:47:34.039Z,11.55
2023-07-03T03:50:02.754Z,10.18
2023-07-03T03:52:31.591Z,9.50
2023-07-03T03:54:59.956Z,9.15
2023-07-03T03:57:27.018Z,9.90
2023-07-03T03:59:53.941Z,5.78
2023-07-03T04:02:21.651Z,7.50
2023-07-03T04:04:48.630Z,8.00
2023-07-03T04:07:15.603Z,5.93
2023-07-03T04:09:42.564Z,7.75
2023-07-03T04:12:10.905Z,10.68
2023-07-03T04:14:39.198Z,7.78
2023-07-03T04:17:10.090Z,6.20
2023-07-03T04:19:37.175Z,7.78
2023-07-03T04:22:04.430Z,4.95
2023-07-03T04:24:31.382Z,8.65
2023-07-03T04:27:00.223Z,6.05
2023-07-03T04:29:27.262Z,6.85
2023-07-03T04:31:54.204Z,7.22
2023-07-03T04:34:21.286Z,7.80
2023-07-03T04:36:48.985Z,6.00
2023-07-03T04:39:16.892Z,5.30
2023-07-03T04:41:44.252Z,7.03
2023-07-03T04:44:13.686Z,6.05
2023-07-03T04:46:41.601Z,7.43
2023-07-03T04:49:09.137Z,5.93
2023-07-03T04:51:36.087Z,6.55
2023-07-03T04:54:04.628Z,7.28
2023-07-03T04:56:35.237Z,7.57
2023-07-03T04:59:02.287Z,6.47
2023-07-03T05:01:31.221Z,5.15
2023-07-03T05:03:58.589Z,8.90
2023-07-03T05:06:26.755Z,6.22
2023-07-03T05:08:53.877Z,7.20
2023-07-03T05:11:20.825Z,6.75
2023-07-03T05:13:47.681Z,5.80
2023-07-03T05:16:15.422Z,6.88
2023-07-03T05:18:42.823Z,8.77
2023-07-03T05:21:09.826Z,5.70
2023-07-03T05:23:37.038Z,7.53
2023-07-03T05:26:04.717Z,7.35
2023-07-03T05:28:32.236Z,6.25
2023-07-03T05:31:00.632Z,7.75
2023-07-03T05:33:29.165Z,8.30
2023-07-03T05:36:01.337Z,8.80
2023-07-03T05:38:29.752Z,10.70
2023-07-03T05:40:56.800Z,8.43
2023-07-03T05:43:23.777Z,8.75
2023-07-03T05:45:51.332Z,9.82
2023-07-03T05:48:18.682Z,9.57
2023-07-03T05:50:46.457Z,7.82
2023-07-03T05:53:13.704Z,10.10
2023-07-03T05:55:40.855Z,11.23
2023-07-03T05:58:08.317Z,8.77
2023-07-03T06:00:35.239Z,8.45
2023-07-03T06:03:03.367Z,11.45
2023-07-03T06:05:30.538Z,7.60
2023-07-03T06:07:57.580Z,10.85
2023-07-03T06:10:25.026Z,9.57
2023-07-03T06:12:52.028Z,10.05
2023-07-03T06:15:19.206Z,8.27
2023-07-03T06:17:46.247Z,11.57
2023-07-03T06:20:13.655Z,6.60
2023-07-03T06:22:42.891Z,7.97
2023-07-03T06:25:11.255Z,10.57
2023-07-03T06:27:38.317Z,7.22
2023-07-03T06:30:06.496Z,9.68
2023-07-03T06:32:33.477Z,11.88
2023-07-03T06:35:02.238Z,7.05
2023-07-03T06:37:31.276Z,7.70
2023-07-03T06:39:58.129Z,11.48
2023-07-03T06:42:25.535Z,11.60
2023-07-03T06:44:58.370Z,10.60
2023-07-03T06:47:25.314Z,8.07
2023-07-03T06:49:52.272Z,10.90
2023-07-03T06:52:19.194Z,7.93
2023-07-03T06:54:48.472Z,9.93
2023-07-03T06:57:15.489Z,6.28
2023-07-03T06:59:42.413Z,6.07
2023-07-03T07:02:09.422Z,6.43
2023-07-03T07:04:36.358Z,7.47
2023-07-03T07:07:03.459Z,8.05
2023-07-03T07:09:30.353Z,6.80
2023-07-03T07:11:57.202Z,9.15
2023-07-03T07:14:24.114Z,6.63
2023-07-03T07:16:51.731Z,13.95
2023-07-03T07:19:18.710Z,10.43
2023-07-03T07:21:45.669Z,6.97
2023-07-03T07:24:18.738Z,7.55
2023-07-03T07:26:46.972Z,6.40
2023-07-03T07:29:14.477Z,5.90
2023-07-03T07:31:42.378Z,7.25
2023-07-03T07:34:12.032Z,7.55
2023-07-03T07:36:40.644Z,6.72
2023-07-03T07:39:09.268Z,7.45
2023-07-03T07:41:36.427Z,7.50
2023-07-03T07:44:05.239Z,7.43
2023-07-03T07:46:34.487Z,9.30
2023-07-03T07:49:02.008Z,9.15
2023-07-03T07:51:29.977Z,8.75
2023-07-03T07:53:58.610Z,7.47
2023-07-03T07:56:26.582Z,7.70
2023-07-03T07:58:53.529Z,8.35
2023-07-03T08:01:21.130Z,6.50
2023-07-03T08:03:48.813Z,8.40
2023-07-03T08:06:17.202Z,8.45
2023-07-03T08:08:44.418Z,7.88
2023-07-03T08:11:11.820Z,5.30
2023-07-03T08:13:42.241Z,8.32
2023-07-03T08:16:12.397Z,9.90
2023-07-03T08:18:39.543Z,6.50
2023-07-03T08:21:06.530Z,5.63
2023-07-03T08:23:33.430Z,6.68
2023-07-03T08:26:02.249Z,7.10
2023-07-03T08:28:30.291Z,8.90
2023-07-03T08:30:59.164Z,8.23
2023-07-03T08:33:26.999Z,9.10
2023-07-03T08:38:24.905Z,7.78
2023-07-03T08:40:59.294Z,6.85
2023-07-03T08:43:35.444Z,6.47
2023-07-03T08:46:04.676Z,5.35
2023-07-03T08:48:35.651Z,5.35
2023-07-03T08:51:10.124Z,7.55
2023-07-03T08:53:41.432Z,7.35
2023-07-03T08:56:22.786Z,8.98
2023-07-03T08:58:57.732Z,6.07
2023-07-03T09:02:12.710Z,5.85
2023-07-03T09:04:58.428Z,6.00
2023-07-03T09:07:38.888Z,7.90
2023-07-03T09:10:25.089Z,9.85
2023-07-03T09:13:08.369Z,6.97
2023-07-03T09:15:43.562Z,9.20
2023-07-03T09:18:21.392Z,7.70
2023-07-03T09:20:49.094Z,7.40
2023-07-03T09:23:32.061Z,7.53
2023-07-03T09:26:07.572Z,8.15
2023-07-03T09:28:39.461Z,8.35
2023-07-03T09:31:07.116Z,5.85
2023-07-03T09:33:34.291Z,8.15
2023-07-03T09:36:19.386Z,9.45
2023-07-03T09:38:46.402Z,6.43
2023-07-03T09:41:13.868Z,8.25
2023-07-03T09:43:45.411Z,7.15
2023-07-03T09:46:16.061Z,4.85
2023-07-03T09:48:44.380Z,6.25
2023-07-03T09:51:28.981Z,8.07
2023-07-03T09:54:07.414Z,7.43
2023-07-03T09:56:34.735Z,10.50
2023-07-03T09:59:06.527Z,8.70
2023-07-03T10:06:58.793Z,8.88
2023-07-03T10:12:16.880Z,9.60
2023-07-03T10:15:09.312Z,5.45
2023-07-03T10:17:42.238Z,11.38
2023-07-03T10:20:23.166Z,7.25
2023-07-03T10:22:54.299Z,6.93
2023-07-03T10:25:40.436Z,7.18
2023-07-03T10:28:22.908Z,5.63
2023-07-03T10:30:56.928Z,8.88
2023-07-03T10:33:33.657Z,6.22
2023-07-03T10:36:06.121Z,6.30
2023-07-03T10:38:56.164Z,6.45
2023-07-03T10:41:34.894Z,7.20
2023-07-03T10:44:31.454Z,4.63
2023-07-03T10:47:56.465Z,5.78
2023-07-03T10:50:35.177Z,9.20
2023-07-03T10:53:37.592Z,6.25
2023-07-03T10:56:33.498Z,6.45
2023-07-03T10:59:25.330Z,8.27
2023-07-03T11:02:24.033Z,7.70
2023-07-03T11:05:35.441Z,8.23
2023-07-03T11:08:29.813Z,7.35
2023-07-03T11:11:12.312Z,9.93
2023-07-03T11:13:56.545Z,7.82
2023-07-03T11:16:36.645Z,10.20
2023-07-03T11:25:13.059Z,8.43
2023-07-03T11:28:27.576Z,4.13
2023-07-03T11:30:55.807Z,9.13
2023-07-03T11:33:23.585Z,4.53
2023-07-03T11:36:00.631Z,6.63
2023-07-03T11:41:02.215Z,7.35
2023-07-03T11:43:47.985Z,8.63
2023-07-03T11:46:23.013Z,6.82
2023-07-03T11:48:57.333Z,7.97
2023-07-03T11:51:37.310Z,5.05
2023-07-03T11:54:21.823Z,8.13
2023-07-03T11:56:55.190Z,7.78
2023-07-03T11:59:26.503Z,6.55
2023-07-03T12:02:14.877Z,7.20
2023-07-03T12:04:47.748Z,7.22
2023-07-03T12:07:23.039Z,9.55
2023-07-03T12:09:53.400Z,7.15
2023-07-03T12:12:22.476Z,4.93
2023-07-03T12:15:01.851Z,6.57
2023-07-03T12:17:33.539Z,5.80
2023-07-03T12:20:19.315Z,6.90
2023-07-03T12:22:53.582Z,7.22
2023-07-03T12:25:30.510Z,7.68
2023-07-03T12:28:14.200Z,5.22
2023-07-03T12:30:41.814Z,5.35
2023-07-03T12:33:08.893Z,6.38
2023-07-03T12:35:43.452Z,5.72
2023-07-03T12:38:11.989Z,7.72
2023-07-03T12:40:43.853Z,6.63
2023-07-03T12:43:16.768Z,6.13
2023-07-03T12:45:55.352Z,4.60
2023-07-03T12:48:24.060Z,5.82
2023-07-03T12:50:54.908Z,5.35
2023-07-03T12:53:23.187Z,5.43
2023-07-03T12:56:07.620Z,5.55
2023-07-03T12:58:34.668Z,5.07
2023-07-03T13:01:08.760Z,5.70
2023-07-03T13:03:43.822Z,5.68
2023-07-03T13:06:21.490Z,5.78
2023-07-03T13:08:50.215Z,3.50
2023-07-03T13:11:49.303Z,6.53
2023-07-03T13:14:25.337Z,3.88
2023-07-03T13:17:02.110Z,3.72
2023-07-03T13:19:36.093Z,6.13
2023-07-03T13:22:19.139Z,3.45
2023-07-03T13:24:49.984Z,5.85
2023-07-03T13:27:28.222Z,6.43
2023-07-03T13:30:20.234Z,5.65
2023-07-03T13:33:01.822Z,5.68
2023-07-03T13:35:37.335Z,5.43
2023-07-03T13:38:31.939Z,4.45
2023-07-03T13:41:00.725Z,6.78
2023-07-03T13:43:32.004Z,8.10
2023-07-03T13:45:59.598Z,6.90
2023-07-03T13:48:28.379Z,5.47
2023-07-03T13:50:57.387Z,9.45
2023-07-03T13:53:26.649Z,5.68
2023-07-03T13:55:54.831Z,6.70
2023-07-03T13:58:21.860Z,3.72
2023-07-03T14:00:48.848Z,6.63
2023-07-03T14:03:17.484Z,5.60
2023-07-03T14:05:44.812Z,8.00
2023-07-03T14:08:11.728Z,3.60
2023-07-03T14:10:38.736Z,4.20
2023-07-03T14:13:06.736Z,7.10
2023-07-03T14:15:37.725Z,4.95
2023-07-03T14:18:05.568Z,8.60
2023-07-03T14:20:32.626Z,8.88
2023-07-03T14:22:59.668Z,4.28
2023-07-03T14:25:27.057Z,4.53
2023-07-03T14:27:54.152Z,6.65
2023-07-03T14:30:21.286Z,5.70
2023-07-03T14:32:55.348Z,6.18
2023-07-03T14:35:24.967Z,5.95
2023-07-03T14:37:52.054Z,7.35
2023-07-03T14:40:19.417Z,6.38
2023-07-03T14:42:47.185Z,5.68
2023-07-03T14:45:15.136Z,8.57
2023-07-03T14:47:42.374Z,7.38
2023-07-03T14:50:11.393Z,7.03
2023-07-03T14:52:41.600Z,7.55
2023-07-03T14:55:09.715Z,4.75
2023-07-03T14:57:36.546Z,5.88
2023-07-03T15:00:05.631Z,5.57
2023-07-03T15:02:32.648Z,6.45
2023-07-03T15:04:59.618Z,6.15
2023-07-03T15:07:26.474Z,5.65
2023-07-03T15:09:53.465Z,7.05
2023-07-03T15:12:20.742Z,6.05
2023-07-03T15:14:47.759Z,6.50
2023-07-03T15:17:14.664Z,8.52
2023-07-03T15:19:41.940Z,7.82
2023-07-03T15:22:11.028Z,6.05
2023-07-03T15:24:38.063Z,6.65
2023-07-03T15:27:06.245Z,7.80
2023-07-03T15:29:33.249Z,5.82
2023-07-03T15:32:00.196Z,6.88
2023-07-03T15:34:28.611Z,7.25
2023-07-03T15:36:56.433Z,6.53
2023-07-03T15:39:25.277Z,6.35
2023-07-03T15:41:53.813Z,6.45
2023-07-03T15:44:21.243Z,9.27
2023-07-03T15:46:48.253Z,5.65
2023-07-03T15:49:15.463Z,6.15
2023-07-03T15:51:44.345Z,7.90
2023-07-03T15:54:11.217Z,5.07
2023-07-03T15:56:38.117Z,6.25
2023-07-03T15:59:05.667Z,9.88
2023-07-03T16:01:32.590Z,7.28
2023-07-03T16:04:01.870Z,9.23
2023-07-03T16:06:35.482Z,6.65
2023-07-03T16:09:03.487Z,7.60
2023-07-03T16:11:32.131Z,7.55
2023-07-03T16:13:59.764Z,6.15
2023-07-03T16:16:27.213Z,4.80
2023-07-03T16:19:00.280Z,4.28
2023-07-03T16:21:34.490Z,5.43
2023-07-03T16:24:04.185Z,6.15
2023-07-03T16:26:32.170Z,11.80
2023-07-03T16:28:59.382Z,11.60
2023-07-03T16:31:30.103Z,6.20
2023-07-03T16:34:02.495Z,6.88
2023-07-03T16:36:31.907Z,8.73
2023-07-03T16:39:05.004Z,7.95
2023-07-03T16:41:38.833Z,6.90
2023-07-03T16:44:06.303Z,5.55
2023-07-03T16:46:34.443Z,7.03
2023-07-03T16:49:02.194Z,5.13
2023-07-03T16:51:29.172Z,7.65
2023-07-03T16:53:56.524Z,8.75
2023-07-03T16:56:28.596Z,8.32
2023-07-03T16:59:00.550Z,9.90
2023-07-03T17:01:32.272Z,9.15
2023-07-03T17:03:59.347Z,11.75
2023-07-03T17:06:31.799Z,9.93
2023-07-03T17:09:01.148Z,10.95
2023-07-03T17:11:28.827Z,10.27
2023-07-03T17:13:56.442Z,9.93
2023-07-03T17:16:23.639Z,10.70
2023-07-03T17:18:50.822Z,14.95
2023-07-03T17:21:17.770Z,11.98
2023-07-03T17:23:46.710Z,10.38
2023-07-03T17:26:13.679Z,9.82
2023-07-03T17:28:41.066Z,9.43
2023-07-03T17:31:08.258Z,9.52
2023-07-03T17:33:35.896Z,9.88
2023-07-03T17:36:03.154Z,7.43
2023-07-03T17:38:31.405Z,10.35
2023-07-03T17:40:58.423Z,9.82
2023-07-03T17:43:25.274Z,10.27
2023-07-03T17:45:54.294Z,8.40
2023-07-03T17:48:22.705Z,8.00
2023-07-03T17:50:50.873Z,11.38
2023-07-03T17:53:21.970Z,10.25
2023-07-03T17:55:49.185Z,11.10
2023-07-03T17:58:17.430Z,10.95
2023-07-03T18:00:44.745Z,9.68
2023-07-03T18:03:11.943Z,11.55
2023-07-03T18:05:39.099Z,10.25
2023-07-03T18:08:06.025Z,9.45
2023-07-03T18:10:35.307Z,7.45
2023-07-03T18:13:02.961Z,10.18
2023-07-03T18:18:00.046Z,12.25
2023-07-03T18:20:27.139Z,17.88
2023-07-03T18:22:54.519Z,13.15
2023-07-03T18:25:21.383Z,9.68
2023-07-03T18:27:48.320Z,11.05
2023-07-03T18:30:15.414Z,11.00
2023-07-03T18:32:42.724Z,11.98
2023-07-03T18:35:09.871Z,18.38
2023-07-03T18:37:37.766Z,8.20
2023-07-03T18:40:06.819Z,9.85
2023-07-03T18:42:33.617Z,11.40
2023-07-03T18:45:00.511Z,12.27
2023-07-03T18:47:31.056Z,11.35
2023-07-03T18:49:59.012Z,14.98
2023-07-03T18:52:26.217Z,13.85
2023-07-03T18:54:53.669Z,8.75
2023-07-03T18:57:20.643Z,10.85
2023-07-03T18:59:48.113Z,12.93
2023-07-03T19:02:16.295Z,15.75
2023-07-03T19:04:44.853Z,15.48
2023-07-03T19:07:13.886Z,9.90
2023-07-03T19:09:41.051Z,8.93
2023-07-03T19:12:08.449Z,9.55
2023-07-03T19:14:36.472Z,8.85
2023-07-03T19:17:04.847Z,12.65
2023-07-03T19:19:31.905Z,16.45
2023-07-03T19:22:00.704Z,11.95
2023-07-03T19:24:28.314Z,12.48
2023-07-03T19:26:55.844Z,11.93
2023-07-03T19:29:22.827Z,17.13
2023-07-03T19:31:49.881Z,12.65
2023-07-03T19:34:16.696Z,15.90
2023-07-03T19:36:43.892Z,9.38
2023-07-03T19:39:10.998Z,7.55
2023-07-03T19:41:40.259Z,8.02
2023-07-03T19:44:08.428Z,8.57
2023-07-03T19:46:35.737Z,8.40
2023-07-03T19:49:03.724Z,6.85
2023-07-03T19:51:30.772Z,7.90
2023-07-03T19:53:57.630Z,4.72
2023-07-03T19:56:24.630Z,7.43
2023-07-03T19:58:51.578Z,5.47
2023-07-03T20:01:19.255Z,6.00
2023-07-03T20:03:46.433Z,5.53
2023-07-03T20:06:21.089Z,10.43
2023-07-03T20:08:50.071Z,11.20
2023-07-03T20:11:17.364Z,10.20
2023-07-03T20:13:46.507Z,12.63
2023-07-03T20:16:13.666Z,10.82
2023-07-03T20:18:40.859Z,12.57
2023-07-03T20:21:08.694Z,14.30
2023-07-03T20:23:36.028Z,19.05
2023-07-03T20:26:06.587Z,13.25
2023-07-03T20:28:33.972Z,12.02
2023-07-03T20:31:01.014Z,13.15
2023-07-03T20:33:28.489Z,9.40
2023-07-03T20:36:07.016Z,7.22
2023-07-03T20:38:33.932Z,10.13
2023-07-03T20:41:07.770Z,5.85
2023-07-03T20:43:36.192Z,7.53
2023-07-03T20:46:10.845Z,6.03
2023-07-03T20:48:39.033Z,6.45
2023-07-03T20:51:22.086Z,5.68
2023-07-03T20:53:52.004Z,6.10
2023-07-03T20:56:22.011Z,8.23
2023-07-03T20:58:53.109Z,11.75
2023-07-03T21:01:22.675Z,9.32
2023-07-03T21:03:50.980Z,6.55
2023-07-03T21:06:22.163Z,10.93
2023-07-03T21:08:51.282Z,10.20
2023-07-03T21:11:22.505Z,11.82
2023-07-03T21:13:55.385Z,7.68
2023-07-03T21:16:24.817Z,10.70
2023-07-03T21:18:53.509Z,7.78
2023-07-03T21:21:31.208Z,11.00
2023-07-03T21:24:10.952Z,9.60
2023-07-03T21:26:38.108Z,10.80
2023-07-03T21:29:05.759Z,12.63
2023-07-03T21:31:35.928Z,11.60
2023-07-03T21:34:04.241Z,12.23
2023-07-03T21:36:33.094Z,7.70
2023-07-03T21:39:04.865Z,7.93
2023-07-03T21:41:35.906Z,4.38
2023-07-03T21:44:13.331Z,7.07
2023-07-03T21:46:40.888Z,5.43
2023-07-03T21:49:11.623Z,5.80
2023-07-03T21:51:38.624Z,7.18
2023-07-03T21:54:05.930Z,10.13
2023-07-03T21:56:32.900Z,7.63
2023-07-03T21:59:05.050Z,5.78
2023-07-03T22:01:36.124Z,5.75
2023-07-03T22:04:05.995Z,5.15
2023-07-03T22:06:33.214Z,4.88
2023-07-03T22:09:00.640Z,3.60
2023-07-03T22:11:30.324Z,3.90
2023-07-03T22:13:57.583Z,4.13
2023-07-03T22:16:24.461Z,5.38
2023-07-03T22:18:51.544Z,4.20
2023-07-03T22:21:21.613Z,5.50
2023-07-03T22:23:51.040Z,5.90
2023-07-03T22:26:19.379Z,5.40
2023-07-03T22:28:47.905Z,5.63
2023-07-03T22:31:15.813Z,5.90
2023-07-03T22:33:42.853Z,4.05
2023-07-03T22:36:12.272Z,5.07
2023-07-03T22:38:39.227Z,4.40
2023-07-03T22:41:06.620Z,7.82
2023-07-03T22:43:33.623Z,6.55
2023-07-03T22:46:07.270Z,8.63
2023-07-03T22:48:34.543Z,8.32
2023-07-03T22:51:06.280Z,9.18
2023-07-03T22:53:33.238Z,6.47
2023-07-03T22:56:04.927Z,7.47
2023-07-03T22:58:34.142Z,7.35
2023-07-03T23:01:09.755Z,9.95
2023-07-03T23:03:39.812Z,5.18
2023-07-03T23:06:08.181Z,6.43
2023-07-03T23:08:36.901Z,7.72
2023-07-03T23:11:03.957Z,6.65
2023-07-03T23:13:32.667Z,6.90
2023-07-03T23:16:05.913Z,11.95
2023-07-03T23:18:41.011Z,8.38
2023-07-03T23:21:12.530Z,10.40
2023-07-03T23:23:39.976Z,10.35
2023-07-03T23:26:13.675Z,7.93
2023-07-03T23:28:43.657Z,8.85
2023-07-03T23:31:17.117Z,10.15
2023-07-03T23:33:49.577Z,9.23
2023-07-03T23:36:20.977Z,9.05
2023-07-03T23:38:47.938Z,12.73
2023-07-03T23:41:14.827Z,12.88
2023-07-03T23:43:41.727Z,9.45
2023-07-03T23:46:12.362Z,10.82
2023-07-03T23:48:41.602Z,11.63
2023-07-03T23:51:12.079Z,7.88
2023-07-03T23:53:43.716Z,10.65
2023-07-03T23:56:13.474Z,10.50
2023-07-03T23:58:43.609Z,10.20
